Prescott, Arizona
Current Conditions -  °F | °C
As of 9:53 PM on Monday 22 Dec 2014 (Local Time) from KPRC Reporting Station
Clear Clear  
Wind Chill:   Ceiling: Unl
Heat Index:   Visibility: 10mi
Dew Point: -1°   Wind: 3mph
Humidity: 60%   Direction: 160°SSE
Pressure: 30.04"   Gusts: NA
Location:  34.54°N, 112.47°W
Report Text: KPRC 230453Z AUTO 16003KT 10SM CLR 06/M01 A3004 RMK AO2 SLP135 T00611011
Loading
Personal Weather Stations






























Interactive Weather Map New forecast layout! Learn more

10-Day Weather Forecast

Advertisements
Track Severe Weather on mobile